Time;durP1;ratioP1;P1;durP2;ratioP2;P2;SDS_P1;SDS_P2;PMS_P1;PMS_P2;Temp;Humidity;BMP_temperature;BMP_pressure;BME280_temperature;BME280_humidity;BME280_pressure;Samples;Min_cycle;Max_cycle;Signal;HPM_P1;HPM_P2
2022/12/04 06:03:38;;;;;;;26.20;13.68;;;3.30;99.90;;;;;;4897218;23;20052;-77
2022/12/04 06:06:08;;;;;;;23.08;11.60;;;3.40;99.90;;;;;;4867390;29;20041;-77
2022/12/04 06:08:34;;;;;;;30.42;14.85;;;3.50;99.90;;;;;;4855726;29;20040;-76
2022/12/04 06:11:00;;;;;;;24.40;12.55;;;3.50;99.90;;;;;;4887662;29;20032;-77
2022/12/04 06:13:26;;;;;;;26.55;12.65;;;3.40;99.90;;;;;;4888399;29;20069;-77
2022/12/04 06:15:53;;;;;;;26.67;13.65;;;3.50;99.90;;;;;;4871078;29;20033;-77
2022/12/04 06:18:18;;;;;;;39.33;22.85;;;3.50;99.90;;;;;;4887717;29;20096;-77
2022/12/04 06:20:44;;;;;;;27.45;14.80;;;3.50;99.90;;;;;;4871033;29;20071;-76
2022/12/04 06:23:10;;;;;;;23.30;12.13;;;3.50;99.90;;;;;;4887629;29;20084;-78
2022/12/04 06:25:35;;;;;;;23.00;11.50;;;3.50;99.90;;;;;;4887973;29;20092;-77
2022/12/04 06:28:02;;;;;;;23.58;12.75;;;3.50;99.90;;;;;;4887567;29;20033;-77
2022/12/04 06:30:29;;;;;;;22.02;11.55;;;3.40;99.90;;;;;;4871378;29;20028;-76
2022/12/04 06:32:55;;;;;;;25.42;12.30;;;3.50;99.90;;;;;;4871244;29;20033;-76
2022/12/04 06:35:20;;;;;;;44.65;24.42;;;3.40;99.90;;;;;;4852922;29;20084;-79
2022/12/04 06:37:47;;;;;;;33.75;17.65;;;3.40;99.90;;;;;;4852928;29;20029;-76
2022/12/04 06:40:12;;;;;;;30.50;15.25;;;3.40;99.90;;;;;;4852591;29;20030;-78
2022/12/04 06:42:38;;;;;;;23.83;11.77;;;3.40;99.90;;;;;;4852851;29;20095;-76
2022/12/04 06:45:05;;;;;;;24.60;11.98;;;3.40;99.90;;;;;;4852551;29;20066;-78
2022/12/04 06:47:32;;;;;;;34.25;16.55;;;3.40;99.90;;;;;;4868275;29;20029;-78
2022/12/04 06:49:58;;;;;;;28.67;14.00;;;3.50;99.90;;;;;;4867697;29;20029;-77
2022/12/04 06:52:24;;;;;;;25.00;12.35;;;3.50;99.90;;;;;;4869059;29;20021;-76
2022/12/04 06:54:50;;;;;;;26.00;13.60;;;3.60;99.90;;;;;;4868840;29;20319;-77
2022/12/04 06:57:15;;;;;;;26.05;12.65;;;3.60;99.90;;;;;;4855444;29;20020;-76
2022/12/04 06:59:41;;;;;;;23.38;12.20;;;3.60;99.90;;;;;;4871406;29;20056;-76
2022/12/04 07:02:08;;;;;;;31.38;15.18;;;3.60;99.90;;;;;;4870331;29;20093;-77
2022/12/04 07:04:34;;;;;;;24.38;12.00;;;3.60;99.90;;;;;;4858468;29;20026;-77
2022/12/04 07:07:00;;;;;;;35.63;16.73;;;3.40;99.90;;;;;;4837286;29;20146;-79
2022/12/04 07:09:26;;;;;;;24.95;13.25;;;3.40;99.90;;;;;;4837711;29;20098;-78
2022/12/04 07:11:53;;;;;;;25.80;13.02;;;3.40;99.90;;;;;;4837475;29;20029;-76
2022/12/04 07:14:19;;;;;;;29.55;14.45;;;3.40;99.90;;;;;;4868278;29;20311;-77
2022/12/04 07:16:45;;;;;;;25.65;12.82;;;3.40;99.90;;;;;;4852761;29;20025;-75
2022/12/04 07:19:14;;;;;;;27.42;13.27;;;3.50;99.90;;;;;;4870103;29;20233;-78
2022/12/04 07:21:41;;;;;;;26.70;13.40;;;3.50;99.90;;;;;;4872454;29;20093;-77
2022/12/04 07:24:15;;;;;;;25.48;13.18;;;3.50;99.90;;;;;;4855332;29;20053;-78
2022/12/04 07:26:42;;;;;;;25.42;13.25;;;3.50;99.90;;;;;;4872565;29;20040;-78
2022/12/04 07:29:09;;;;;;;25.63;13.27;;;3.60;99.90;;;;;;4840981;29;20133;-76
2022/12/04 07:32:00;;;;;;;27.45;12.98;;;3.60;99.90;;;;;;4855587;29;20032;-78
2022/12/04 07:34:25;;;;;;;27.23;13.63;;;3.70;99.90;;;;;;4872585;29;20029;-78
2022/12/04 07:36:51;;;;;;;23.98;12.65;;;3.70;99.90;;;;;;4872490;29;20346;-76
2022/12/04 07:39:17;;;;;;;24.98;13.10;;;3.70;99.90;;;;;;4872217;29;20145;-77
2022/12/04 07:41:43;;;;;;;23.77;12.35;;;3.70;99.90;;;;;;4871917;29;20257;-77
2022/12/04 07:44:09;;;;;;;25.20;12.95;;;3.80;99.90;;;;;;4871357;29;20042;-76
2022/12/04 07:46:38;;;;;;;21.98;11.77;;;3.80;99.90;;;;;;4855578;29;20033;-78
2022/12/04 07:49:03;;;;;;;24.60;12.77;;;3.80;99.90;;;;;;4871299;29;20108;-77
2022/12/04 07:51:29;;;;;;;26.67;13.55;;;3.80;99.90;;;;;;4871660;29;20029;-78
2022/12/04 07:53:58;;;;;;;24.80;12.15;;;3.80;99.90;;;;;;4871162;29;20101;-77
2022/12/04 07:56:24;;;;;;;25.58;12.75;;;3.80;99.90;;;;;;4855150;29;20307;-76
2022/12/04 07:58:50;;;;;;;24.90;13.60;;;3.80;99.90;;;;;;4854993;29;20143;-75
2022/12/04 08:01:19;;;;;;;26.08;13.48;;;3.80;99.90;;;;;;4871120;29;20219;-75
2022/12/04 08:03:45;;;;;;;;;;;3.80;99.90;;;;;;4853549;29;20098;-75
2022/12/04 08:06:11;;;;;;;24.30;11.75;;;3.80;99.90;;;;;;4852462;29;19944;-75
2022/12/04 08:08:37;;;;;;;25.58;12.50;;;3.70;99.90;;;;;;4853125;29;20334;-76
2022/12/04 08:11:09;;;;;;;25.77;13.00;;;3.80;99.90;;;;;;4852818;29;20082;-73
2022/12/04 08:13:35;;;;;;;24.50;12.27;;;3.80;99.90;;;;;;4852736;29;20105;-75
2022/12/04 08:16:02;;;;;;;25.88;12.02;;;3.80;99.90;;;;;;4852444;29;20049;-75
2022/12/04 08:18:29;;;;;;;28.08;13.43;;;3.90;99.90;;;;;;4853004;29;20040;-77
2022/12/04 08:21:05;;;;;;;23.05;11.93;;;3.80;99.90;;;;;;4852596;29;20104;-77
2022/12/04 08:23:31;;;;;;;24.80;12.07;;;3.90;99.90;;;;;;4836670;29;20363;-77
2022/12/04 08:25:59;;;;;;;23.38;11.95;;;3.90;99.90;;;;;;4836167;29;20303;-74
2022/12/04 08:28:25;;;;;;;25.17;12.53;;;3.90;99.90;;;;;;4852435;29;20033;-75
2022/12/04 08:30:50;;;;;;;22.83;11.40;;;3.90;99.90;;;;;;4852748;29;20037;-76
2022/12/04 08:33:16;;;;;;;22.65;12.80;;;4.00;99.90;;;;;;4852208;29;20037;-74
2022/12/04 08:35:42;;;;;;;20.60;11.20;;;4.00;99.90;;;;;;4853051;29;20327;-73
2022/12/04 08:38:08;;;;;;;22.58;11.75;;;3.90;99.90;;;;;;4852229;29;20037;-75
2022/12/04 08:40:33;;;;;;;23.52;12.60;;;4.00;99.90;;;;;;4866604;29;20327;-75
2022/12/04 08:42:59;;;;;;;24.33;12.10;;;4.10;99.90;;;;;;4851743;29;20037;-74
2022/12/04 08:45:25;;;;;;;23.90;11.88;;;4.10;99.90;;;;;;4852172;29;20029;-76
2022/12/04 08:47:51;;;;;;;20.17;11.25;;;4.10;99.90;;;;;;4836429;29;20060;-76
2022/12/04 08:50:17;;;;;;;22.33;11.63;;;4.10;99.90;;;;;;4836656;29;20205;-76
2022/12/04 08:52:43;;;;;;;21.20;11.80;;;4.10;99.90;;;;;;4852206;29;20025;-76
2022/12/04 08:55:09;;;;;;;22.13;12.13;;;4.10;99.90;;;;;;4852855;29;20046;-76
2022/12/04 08:57:35;;;;;;;22.10;11.57;;;4.10;99.90;;;;;;4856415;29;20211;-75
2022/12/04 09:00:01;;;;;;;22.50;11.00;;;4.10;99.90;;;;;;4858530;29;20057;-77
2022/12/04 09:02:27;;;;;;;20.85;10.80;;;4.10;99.90;;;;;;4881931;29;20097;-78
2022/12/04 09:04:52;;;;;;;21.85;11.73;;;4.10;99.90;;;;;;4883785;29;20033;-78
2022/12/04 09:07:18;;;;;;;23.88;11.48;;;4.20;99.90;;;;;;4852385;29;20131;-77
2022/12/04 09:09:44;;;;;;;23.33;11.93;;;4.20;99.90;;;;;;4858265;29;20204;-77
2022/12/04 09:12:09;;;;;;;21.25;11.15;;;4.30;99.90;;;;;;4853946;29;20045;-77
2022/12/04 09:14:35;;;;;;;23.60;12.75;;;4.30;99.90;;;;;;4854178;29;20215;-77
2022/12/04 09:17:01;;;;;;;22.42;11.98;;;4.30;99.90;;;;;;4870203;29;20072;-77
2022/12/04 09:19:27;;;;;;;22.85;12.18;;;4.30;99.90;;;;;;4870244;29;20248;-76
2022/12/04 09:21:53;;;;;;;21.73;12.15;;;4.20;99.90;;;;;;4838467;29;20101;-77
2022/12/04 09:24:19;;;;;;;23.73;11.93;;;4.20;99.90;;;;;;4853100;29;20402;-78
2022/12/04 09:26:45;;;;;;;50.65;24.48;;;4.10;99.90;;;;;;4870008;29;20030;-75
2022/12/04 09:29:11;;;;;;;33.95;18.30;;;4.20;99.90;;;;;;4869527;29;20061;-77
2022/12/04 09:31:37;;;;;;;25.05;13.63;;;4.20;99.90;;;;;;4870500;29;20033;-77
2022/12/04 09:34:03;;;;;;;24.85;13.15;;;4.20;99.90;;;;;;4869637;29;20094;-76
2022/12/04 09:36:29;;;;;;;28.60;13.05;;;4.20;99.90;;;;;;4870270;29;20089;-76
2022/12/04 09:38:56;;;;;;;23.77;12.75;;;4.10;99.90;;;;;;4855306;29;20112;-75
2022/12/04 09:41:43;;;;;;;21.63;12.20;;;4.20;99.90;;;;;;4850870;29;20033;-76
2022/12/04 09:44:22;;;;;;;25.38;12.55;;;4.20;99.90;;;;;;4850824;29;20029;-78
2022/12/04 09:46:58;;;;;;;25.73;13.60;;;4.30;99.90;;;;;;4851605;29;20045;-78
2022/12/04 09:49:38;;;;;;;23.85;12.77;;;4.20;99.90;;;;;;4851142;29;20093;-76
2022/12/04 09:52:38;;;;;;;29.35;13.38;;;4.30;99.90;;;;;;4850946;29;20272;-76
2022/12/04 09:55:09;;;;;;;23.20;12.93;;;4.30;99.90;;;;;;4849736;29;20040;-75
2022/12/04 09:57:46;;;;;;;21.92;12.82;;;4.30;99.90;;;;;;4855020;29;20057;-74
2022/12/04 10:00:18;;;;;;;23.27;13.27;;;4.30;99.90;;;;;;4852555;29;20045;-75
2022/12/04 10:02:50;;;;;;;25.00;13.23;;;4.30;99.90;;;;;;4869183;29;20141;-75
2022/12/04 10:05:59;;;;;;;23.38;12.48;;;4.40;99.90;;;;;;4869063;29;20037;-74
2022/12/04 10:08:34;;;;;;;27.48;13.38;;;4.30;99.90;;;;;;4864578;29;20057;-75
2022/12/04 10:11:09;;;;;;;24.85;13.00;;;4.30;99.90;;;;;;4853825;29;20025;-74
2022/12/04 10:14:12;;;;;;;27.63;13.07;;;4.30;99.90;;;;;;4850198;29;20026;-73
2022/12/04 10:16:56;;;;;;;25.27;13.52;;;4.30;99.90;;;;;;4842852;29;20026;-74
2022/12/04 10:19:45;;;;;;;24.88;12.57;;;4.20;99.90;;;;;;4859404;29;20291;-77
2022/12/04 10:22:41;;;;;;;28.10;14.13;;;4.20;99.90;;;;;;4844751;29;20037;-74
2022/12/04 10:25:25;;;;;;;25.17;12.60;;;4.30;99.90;;;;;;4834370;29;20308;-77
2022/12/04 10:27:58;;;;;;;26.73;13.48;;;4.30;99.90;;;;;;4850940;29;20066;-75
2022/12/04 10:30:34;;;;;;;29.05;13.85;;;4.30;99.90;;;;;;4850520;29;20033;-75
2022/12/04 10:33:13;;;;;;;27.92;13.60;;;4.30;99.90;;;;;;4850841;29;20057;-77
2022/12/04 10:35:42;;;;;;;26.30;13.85;;;4.40;99.90;;;;;;4835051;29;20312;-76
2022/12/04 10:38:42;;;;;;;29.25;14.10;;;4.20;99.90;;;;;;4842889;29;20037;-78
2022/12/04 10:41:14;;;;;;;25.08;13.27;;;4.20;99.90;;;;;;4853040;29;20101;-78
2022/12/04 10:43:46;;;;;;;26.13;13.40;;;4.20;99.90;;;;;;4869845;29;20101;-79
2022/12/04 10:46:29;;;;;;;27.23;13.73;;;4.10;99.90;;;;;;4852827;29;20093;-78
2022/12/04 10:49:00;;;;;;;28.05;14.05;;;4.10;99.90;;;;;;4869327;29;20033;-79
2022/12/04 10:51:27;;;;;;;29.42;14.57;;;4.10;99.90;;;;;;4868821;29;20102;-80
2022/12/04 10:53:55;;;;;;;28.65;14.27;;;4.10;99.90;;;;;;4867837;29;20041;-77
2022/12/04 10:56:23;;;;;;;23.75;13.25;;;4.10;99.90;;;;;;4854420;29;20096;-79
2022/12/04 10:59:04;;;;;;;23.92;12.80;;;4.20;99.90;;;;;;4831724;29;20109;-79
2022/12/04 11:01:32;;;;;;;26.33;13.60;;;4.30;99.90;;;;;;4855730;29;20109;-77
2022/12/04 11:04:17;;;;;;;28.08;14.35;;;4.30;99.90;;;;;;4858101;29;20042;-79
2022/12/04 11:06:44;;;;;;;27.00;13.15;;;4.30;99.90;;;;;;4854155;29;20033;-76
2022/12/04 11:09:23;;;;;;;24.48;13.10;;;4.30;99.90;;;;;;4822378;29;20044;-78
2022/12/04 11:11:50;;;;;;;24.88;12.55;;;4.20;99.90;;;;;;4863465;29;20033;-78
2022/12/04 11:14:19;;;;;;;25.60;12.25;;;4.20;99.90;;;;;;4871994;29;20033;-77
2022/12/04 11:16:59;;;;;;;23.55;12.10;;;4.30;99.90;;;;;;4861595;29;20044;-77
2022/12/04 11:19:31;;;;;;;26.00;13.13;;;4.30;99.90;;;;;;4853579;29;20258;-78
2022/12/04 11:22:14;;;;;;;23.55;11.55;;;4.20;99.90;;;;;;4837628;29;20308;-76
2022/12/04 11:24:41;;;;;;;24.00;12.60;;;4.20;99.90;;;;;;4837092;29;20029;-77
2022/12/04 11:27:27;;;;;;;24.90;12.85;;;4.20;99.90;;;;;;4821723;29;20316;-76
2022/12/04 11:29:54;;;;;;;24.50;11.38;;;4.20;99.90;;;;;;4853442;29;20186;-76
2022/12/04 11:32:37;;;;;;;23.93;12.17;;;4.20;99.90;;;;;;4822189;29;20026;-77
2022/12/04 11:35:16;;;;;;;22.30;10.63;;;4.20;99.90;;;;;;4836253;29;20182;-77
2022/12/04 11:37:56;;;;;;;22.83;11.50;;;4.20;99.90;;;;;;4836809;29;20036;-77
2022/12/04 11:40:24;;;;;;;26.02;12.25;;;4.20;99.90;;;;;;4821284;29;20125;-76
2022/12/04 11:43:18;;;;;;;25.63;12.13;;;4.20;99.90;;;;;;4853369;29;20030;-77
2022/12/04 11:45:56;;;;;;;22.08;11.30;;;4.20;99.90;;;;;;4853092;29;20045;-77
2022/12/04 11:48:22;;;;;;;26.02;12.63;;;4.20;99.90;;;;;;4851588;29;20109;-76
2022/12/04 11:51:00;;;;;;;24.45;11.80;;;4.20;99.90;;;;;;4860134;29;20037;-78
2022/12/04 11:53:45;;;;;;;22.83;11.55;;;4.20;99.90;;;;;;4858563;29;20041;-78
2022/12/04 11:56:21;;;;;;;23.98;11.80;;;4.30;99.90;;;;;;4823023;29;20030;-77
2022/12/04 11:59:06;;;;;;;23.88;11.23;;;4.30;99.90;;;;;;4821446;29;20313;-76
2022/12/04 12:01:50;;;;;;;24.38;11.73;;;4.30;99.90;;;;;;4819400;29;20026;-76
2022/12/04 12:04:25;;;;;;;23.67;11.73;;;4.20;99.90;;;;;;4819481;29;20038;-76
2022/12/04 12:07:20;;;;;;;23.13;11.23;;;4.30;99.90;;;;;;4820024;29;20121;-78
2022/12/04 12:10:03;;;;;;;21.30;10.98;;;4.30;99.90;;;;;;4836616;29;20094;-78
2022/12/04 12:12:56;;;;;;;25.85;14.45;;;4.30;99.90;;;;;;4820356;29;20109;-78
2022/12/04 12:15:42;;;;;;;22.38;11.93;;;4.40;99.90;;;;;;4831691;29;20034;-78
2022/12/04 12:18:16;;;;;;;21.92;11.48;;;4.40;99.90;;;;;;4835425;29;20044;-77
2022/12/04 12:20:57;;;;;;;24.33;12.10;;;4.40;99.90;;;;;;4820567;29;20061;-77
2022/12/04 12:26:53;;;;;;;24.05;11.57;;;4.40;99.90;;;;;;4853904;29;20323;-78
2022/12/04 12:29:59;;;;;;;21.75;11.85;;;4.30;99.90;;;;;;4838331;29;20093;-77
2022/12/04 12:33:10;;;;;;;22.75;11.48;;;4.30;99.90;;;;;;4827038;29;20033;-78
2022/12/04 12:36:05;;;;;;;23.90;11.45;;;4.20;99.90;;;;;;4851558;29;20097;-76
2022/12/04 12:41:59;;;;;;;23.05;11.85;;;4.30;99.90;;;;;;4835280;29;20057;-77
2022/12/04 12:44:44;;;;;;;22.83;11.00;;;4.20;99.90;;;;;;4850780;29;20037;-75
2022/12/04 12:47:17;;;;;;;25.73;12.18;;;4.20;99.90;;;;;;4851100;29;20034;-75
2022/12/04 12:49:47;;;;;;;25.08;11.68;;;4.30;99.90;;;;;;4851376;29;20078;-75
2022/12/04 12:52:33;;;;;;;21.20;11.25;;;4.20;99.90;;;;;;4850659;29;20110;-78
2022/12/04 12:55:02;;;;;;;23.63;11.35;;;4.10;99.90;;;;;;4850844;29;20026;-78
2022/12/04 12:57:36;;;;;;;24.75;11.60;;;4.10;99.90;;;;;;4860549;29;20320;-79
2022/12/04 13:00:07;;;;;;;24.33;11.70;;;4.00;99.90;;;;;;4835004;29;20030;-77
2022/12/04 13:03:00;;;;;;;23.95;11.75;;;4.00;99.90;;;;;;4843217;29;20049;-76
2022/12/04 13:05:41;;;;;;;22.60;11.95;;;4.00;99.90;;;;;;4852499;29;20132;-77
2022/12/04 13:08:24;;;;;;;24.58;12.35;;;4.00;99.90;;;;;;4853144;29;20041;-76
2022/12/04 13:11:08;;;;;;;23.10;12.30;;;4.00;99.90;;;;;;4852671;29;20034;-77
2022/12/04 13:14:06;;;;;;;26.33;12.85;;;4.00;99.90;;;;;;4837424;29;20219;-78
2022/12/04 13:16:41;;;;;;;23.85;12.35;;;4.00;99.90;;;;;;4870518;29;20045;-76
2022/12/04 13:19:34;;;;;;;25.88;12.02;;;4.00;99.90;;;;;;4869242;29;20033;-79
2022/12/04 13:22:30;;;;;;;25.35;13.13;;;4.00;99.90;;;;;;4837522;29;20034;-78
2022/12/04 13:25:37;;;;;;;25.80;12.00;;;3.90;99.90;;;;;;4852557;29;20064;-77
2022/12/04 13:28:19;;;;;;;25.95;12.25;;;4.00;99.90;;;;;;4843312;29;20041;-76
2022/12/04 13:31:20;;;;;;;24.38;11.82;;;4.00;99.90;;;;;;4837699;29;20045;-77
2022/12/04 13:34:01;;;;;;;25.48;12.30;;;4.00;99.90;;;;;;4868895;29;20191;-77
2022/12/04 13:36:48;;;;;;;24.17;11.77;;;4.00;99.90;;;;;;4851992;29;20044;-78
2022/12/04 13:39:39;;;;;;;24.33;11.97;;;4.00;99.90;;;;;;4885790;29;20032;-77
2022/12/04 13:42:20;;;;;;;21.85;11.45;;;4.10;99.90;;;;;;4887529;29;20314;-76
2022/12/04 13:45:25;;;;;;;23.75;11.20;;;4.20;99.90;;;;;;4871180;29;20033;-77
2022/12/04 13:47:58;;;;;;;20.60;10.35;;;4.10;99.90;;;;;;4848316;29;20068;-77
2022/12/04 13:50:35;;;;;;;21.30;10.48;;;4.10;99.90;;;;;;4854985;29;20088;-78
2022/12/04 13:53:02;;;;;;;20.60;10.37;;;4.10;99.90;;;;;;4887348;29;20096;-75
2022/12/04 13:55:37;;;;;;;23.55;11.00;;;4.00;99.90;;;;;;4870107;29;20033;-77
2022/12/04 13:58:12;;;;;;;20.33;10.80;;;4.00;99.90;;;;;;4868241;29;20306;-78
2022/12/04 14:00:41;;;;;;;21.63;10.35;;;4.10;99.90;;;;;;4870491;29;20029;-78
2022/12/04 14:03:36;;;;;;;21.08;10.85;;;4.10;99.90;;;;;;4858400;29;20113;-76
2022/12/04 14:06:40;;;;;;;20.55;10.85;;;4.10;99.90;;;;;;4868881;29;20045;-75
2022/12/04 14:09:32;;;;;;;19.23;10.00;;;4.10;99.90;;;;;;4871563;29;20044;-74
2022/12/04 14:12:04;;;;;;;19.92;10.50;;;4.10;99.90;;;;;;4870571;29;20073;-75
2022/12/04 14:14:43;;;;;;;21.50;10.30;;;4.20;99.90;;;;;;4857404;29;20074;-74
2022/12/04 14:17:48;;;;;;;22.10;11.15;;;4.30;99.90;;;;;;4873672;29;20049;-75
2022/12/04 14:20:27;;;;;;;20.75;10.40;;;4.30;99.90;;;;;;4856077;29;20037;-75
2022/12/04 14:22:53;;;;;;;23.05;10.35;;;4.20;99.90;;;;;;4874517;29;20064;-76
2022/12/04 14:25:34;;;;;;;22.33;10.05;;;4.10;99.90;;;;;;4868062;29;20227;-75
2022/12/04 14:28:26;;;;;;;20.92;11.05;;;4.10;99.90;;;;;;4870804;29;20042;-75
2022/12/04 14:31:17;;;;;;;21.48;10.90;;;4.20;99.90;;;;;;4872243;29;20092;-75
2022/12/04 14:34:20;;;;;;;20.27;9.85;;;4.10;99.90;;;;;;4855319;29;20037;-76
2022/12/04 14:36:54;;;;;;;22.17;9.48;;;4.20;99.90;;;;;;4872193;29;20037;-75
2022/12/04 14:39:32;;;;;;;22.38;10.52;;;4.20;99.90;;;;;;4872062;29;20029;-76
2022/12/04 14:42:32;;;;;;;21.45;10.25;;;4.30;99.90;;;;;;4872495;29;20101;-74
2022/12/04 14:45:00;;;;;;;22.70;10.20;;;4.30;99.90;;;;;;4847939;29;20047;-76
2022/12/04 14:47:45;;;;;;;;;;;4.30;99.90;;;;;;4871659;29;20037;-76
2022/12/04 14:50:30;;;;;;;22.38;10.52;;;4.20;99.90;;;;;;4871565;29;19916;-76
2022/12/04 14:53:03;;;;;;;24.25;11.32;;;4.20;99.90;;;;;;4871968;29;20149;-75
2022/12/04 14:56:11;;;;;;;21.67;10.88;;;4.20;99.90;;;;;;4870920;29;20038;-76
2022/12/04 14:58:37;;;;;;;22.30;10.88;;;4.10;99.90;;;;;;4884290;29;20041;-75
2022/12/04 15:01:26;;;;;;;24.52;12.05;;;4.10;99.90;;;;;;4890318;29;20033;-76
2022/12/04 15:03:54;;;;;;;;;;;4.10;99.90;;;;;;4874010;29;20124;-76
2022/12/04 15:06:26;;;;;;;20.85;10.55;;;4.10;99.90;;;;;;4870831;29;19915;-75
2022/12/04 15:14:46;;;;;;;24.60;11.18;;;4.20;99.90;;;;;;4870677;29;20037;-75
2022/12/04 15:17:14;;;;;;;23.15;11.20;;;4.20;99.90;;;;;;4854662;29;20052;-76
2022/12/04 15:19:49;;;;;;;26.98;12.45;;;4.30;99.90;;;;;;4855955;29;20060;-77
2022/12/04 15:22:22;;;;;;;23.35;11.50;;;4.30;99.90;;;;;;4840446;29;20034;-76
2022/12/04 15:24:53;;;;;;;22.25;11.15;;;4.40;99.90;;;;;;4840749;29;20112;-78
2022/12/04 15:27:26;;;;;;;24.70;10.95;;;4.40;99.90;;;;;;4840378;29;20033;-77
2022/12/04 15:30:05;;;;;;;26.15;11.73;;;4.30;99.90;;;;;;4855612;29;20067;-77
2022/12/04 15:32:31;;;;;;;27.50;12.40;;;4.30;99.90;;;;;;4872155;29;20025;-76
2022/12/04 15:35:14;;;;;;;23.30;11.00;;;4.30;99.90;;;;;;4871324;29;20097;-76
2022/12/04 15:37:47;;;;;;;24.00;11.68;;;4.30;99.90;;;;;;4853793;29;20231;-78
2022/12/04 15:40:41;;;;;;;26.35;12.13;;;4.20;99.90;;;;;;4870515;29;20025;-78
2022/12/04 15:43:16;;;;;;;23.70;11.60;;;4.30;99.90;;;;;;4870482;29;20037;-77
2022/12/04 15:45:46;;;;;;;24.40;12.63;;;4.30;99.90;;;;;;4870468;29;20241;-75
2022/12/04 15:51:35;;;;;;;22.38;10.93;;;4.30;99.90;;;;;;4842607;29;20049;-75
2022/12/04 15:54:35;;;;;;;25.17;11.95;;;4.30;99.90;;;;;;4840093;29;20344;-76
2022/12/04 15:58:18;;;;;;;42.88;22.77;;;4.20;99.90;;;;;;4840156;29;20040;-75
2022/12/04 16:01:40;;;;;;;24.27;12.02;;;4.10;99.90;;;;;;4875711;29;20029;-77
2022/12/04 16:04:34;;;;;;;23.88;11.13;;;4.10;99.90;;;;;;4854319;29;20166;-75
2022/12/04 16:07:29;;;;;;;22.30;10.68;;;4.10;99.90;;;;;;4870587;29;20030;-76
2022/12/04 16:10:39;;;;;;;25.30;12.03;;;4.20;99.90;;;;;;4853927;29;20100;-78
2022/12/04 16:13:25;;;;;;;27.15;12.40;;;4.20;99.90;;;;;;4831135;29;20261;-76
2022/12/04 16:16:03;;;;;;;26.45;12.23;;;4.30;99.90;;;;;;4801956;29;20049;-74
2022/12/04 16:18:49;;;;;;;23.10;11.25;;;4.30;99.90;;;;;;4831300;29;20101;-76
2022/12/04 16:21:27;;;;;;;25.17;12.38;;;4.30;99.90;;;;;;4831557;29;20065;-76
2022/12/04 16:24:04;;;;;;;24.13;11.47;;;4.30;99.90;;;;;;4801421;29;20038;-77
2022/12/04 16:26:37;;;;;;;25.10;12.00;;;4.30;99.90;;;;;;4815994;29;20042;-76
2022/12/04 16:29:12;;;;;;;27.17;11.95;;;4.20;99.90;;;;;;4831435;29;20046;-75
2022/12/04 16:31:52;;;;;;;29.52;14.77;;;4.20;99.90;;;;;;4817077;29;20039;-78
2022/12/04 16:34:18;;;;;;;28.90;13.95;;;4.20;99.90;;;;;;4816614;29;20041;-76
2022/12/04 16:36:43;;;;;;;26.55;11.93;;;4.20;99.90;;;;;;4835400;29;20310;-77
2022/12/04 16:39:09;;;;;;;28.08;13.20;;;4.20;99.90;;;;;;4839765;29;20054;-79
2022/12/04 16:41:41;;;;;;;30.83;13.70;;;4.10;99.90;;;;;;4816079;29;20033;-76
2022/12/04 16:44:13;;;;;;;28.75;13.18;;;4.10;99.90;;;;;;4831840;29;20243;-75
2022/12/04 16:46:42;;;;;;;30.77;13.48;;;4.10;99.90;;;;;;4816299;29;20061;-75
2022/12/04 16:49:12;;;;;;;27.65;13.38;;;4.10;99.90;;;;;;4834727;29;20346;-75
2022/12/04 16:51:43;;;;;;;28.77;13.75;;;4.10;99.90;;;;;;4869375;29;20181;-76
2022/12/04 16:54:33;;;;;;;31.63;13.30;;;4.00;99.90;;;;;;4868666;29;20096;-77
2022/12/04 16:56:59;;;;;;;28.17;13.95;;;4.00;99.90;;;;;;4853821;29;20196;-78
2022/12/04 16:59:25;;;;;;;30.55;14.13;;;3.90;99.90;;;;;;4888543;29;20021;-76
2022/12/04 17:01:51;;;;;;;34.80;15.52;;;3.80;99.90;;;;;;4887390;29;20033;-75
2022/12/04 17:04:18;;;;;;;32.45;15.10;;;3.80;99.90;;;;;;4853808;29;20212;-74
2022/12/04 17:06:44;;;;;;;36.90;15.35;;;3.70;99.90;;;;;;4869921;29;20042;-75
2022/12/04 17:09:16;;;;;;;40.15;15.80;;;3.70;99.90;;;;;;4853676;29;20072;-78
2022/12/04 17:11:50;;;;;;;31.55;15.27;;;3.60;99.90;;;;;;4869675;29;20041;-76
2022/12/04 17:14:16;;;;;;;32.00;14.80;;;3.60;99.90;;;;;;4884376;29;20037;-75
2022/12/04 17:16:48;;;;;;;39.72;15.73;;;3.60;99.90;;;;;;4883296;29;20033;-76
2022/12/04 17:19:15;;;;;;;39.50;15.70;;;3.60;99.90;;;;;;4869430;29;20239;-76
2022/12/04 17:21:41;;;;;;;37.38;16.70;;;3.60;99.90;;;;;;4869390;29;20033;-76
2022/12/04 17:24:18;;;;;;;37.38;16.45;;;3.60;99.90;;;;;;4869826;29;20036;-79
2022/12/04 17:26:44;;;;;;;45.40;18.30;;;3.60;99.90;;;;;;4869059;29;20029;-74
2022/12/04 17:29:12;;;;;;;48.78;17.63;;;3.60;99.90;;;;;;4868871;29;20300;-75
2022/12/04 17:31:38;;;;;;;49.58;18.27;;;3.50;99.90;;;;;;4868942;29;20156;-74
2022/12/04 17:34:04;;;;;;;49.42;19.25;;;3.60;99.90;;;;;;4870019;29;20033;-76
2022/12/04 17:36:33;;;;;;;48.35;19.60;;;3.60;99.90;;;;;;4852783;29;20211;-76
2022/12/04 17:39:00;;;;;;;48.15;18.42;;;3.60;99.90;;;;;;4868958;29;20330;-74
2022/12/04 17:41:26;;;;;;;45.35;18.58;;;3.60;99.90;;;;;;4869414;29;20100;-76
2022/12/04 17:43:52;;;;;;;46.85;19.27;;;3.70;99.90;;;;;;4868669;29;20052;-76
2022/12/04 17:46:23;;;;;;;46.70;18.15;;;3.70;99.90;;;;;;4867919;29;20092;-76
2022/12/04 17:48:49;;;;;;;43.50;18.52;;;3.70;99.90;;;;;;4882875;29;20286;-76
2022/12/04 17:51:17;;;;;;;45.42;18.02;;;3.70;99.90;;;;;;4868206;29;20029;-76
2022/12/04 17:53:44;;;;;;;46.67;17.83;;;3.70;99.90;;;;;;4868932;29;20040;-76
2022/12/04 17:56:12;;;;;;;44.67;18.23;;;3.60;99.90;;;;;;4869154;29;20029;-76
2022/12/04 17:58:42;;;;;;;45.55;17.50;;;3.70;99.90;;;;;;4881478;29;20056;-76
2022/12/04 18:01:11;;;;;;;48.20;19.13;;;3.60;99.90;;;;;;4870490;29;20025;-76
2022/12/04 18:03:37;;;;;;;48.92;18.35;;;3.60;99.90;;;;;;4886564;29;20053;-76
2022/12/04 18:06:10;;;;;;;47.22;19.30;;;3.60;99.90;;;;;;4870939;29;20108;-76
2022/12/04 18:08:36;;;;;;;48.70;18.98;;;3.60;99.90;;;;;;4886903;29;20048;-76
2022/12/04 18:11:05;;;;;;;39.53;16.83;;;3.60;99.90;;;;;;4870772;29;20029;-76
2022/12/04 18:13:31;;;;;;;45.90;17.70;;;3.70;99.90;;;;;;4870087;29;20031;-77
2022/12/04 18:16:04;;;;;;;47.60;18.33;;;3.60;99.90;;;;;;4887691;29;20037;-76
2022/12/04 18:18:31;;;;;;;44.70;20.17;;;3.70;99.90;;;;;;4870935;29;20230;-76
2022/12/04 18:21:05;;;;;;;50.53;19.20;;;3.80;99.90;;;;;;4887401;29;20087;-76
2022/12/04 18:23:31;;;;;;;48.28;18.35;;;3.80;99.90;;;;;;4887009;29;20445;-76
2022/12/04 18:25:59;;;;;;;47.78;18.15;;;3.90;99.90;;;;;;4887175;29;20029;-76
2022/12/04 18:28:26;;;;;;;50.85;22.75;;;3.90;99.90;;;;;;4855494;29;20100;-76
2022/12/04 18:30:52;;;;;;;37.83;16.45;;;3.90;99.90;;;;;;4870437;29;20048;-77
2022/12/04 18:33:19;;;;;;;41.60;17.75;;;3.90;99.90;;;;;;4887033;29;20096;-76
2022/12/04 18:35:55;;;;;;;41.55;17.15;;;3.80;99.90;;;;;;4886832;29;20070;-77
2022/12/04 18:38:24;;;;;;;42.57;17.10;;;3.80;99.90;;;;;;4887045;29;20047;-76
2022/12/04 18:40:50;;;;;;;41.95;17.92;;;3.80;99.90;;;;;;4886750;29;20041;-76
2022/12/04 18:43:17;;;;;;;46.20;17.92;;;3.80;99.90;;;;;;4887332;29;20029;-77
2022/12/04 18:45:43;;;;;;;47.15;18.33;;;3.80;99.90;;;;;;4887024;29;20040;-76
2022/12/04 18:48:16;;;;;;;58.53;24.10;;;3.80;99.90;;;;;;4887077;29;20338;-77
2022/12/04 18:50:42;;;;;;;50.88;21.08;;;3.80;99.90;;;;;;4870511;29;20033;-80
2022/12/04 18:53:09;;;;;;;67.93;26.42;;;3.80;99.90;;;;;;4888339;29;20126;-79
2022/12/04 18:55:36;;;;;;;51.33;24.25;;;3.70;99.90;;;;;;4854504;29;20025;-77
2022/12/04 18:58:02;;;;;;;44.83;21.58;;;3.70;99.90;;;;;;4852032;29;20050;-78
2022/12/04 19:00:28;;;;;;;40.40;16.80;;;3.60;99.90;;;;;;4849087;29;20026;-76
2022/12/04 19:02:54;;;;;;;41.47;18.95;;;3.60;99.90;;;;;;4868022;29;20358;-75
2022/12/04 19:05:21;;;;;;;40.70;16.85;;;3.60;99.90;;;;;;4860914;29;20037;-76
2022/12/04 19:07:48;;;;;;;42.17;18.27;;;3.60;99.90;;;;;;4863047;29;20045;-76
2022/12/04 19:10:14;;;;;;;41.47;17.85;;;3.60;99.90;;;;;;4851556;29;20062;-76
2022/12/04 19:12:40;;;;;;;46.53;19.92;;;3.60;99.90;;;;;;4850345;29;20256;-76
2022/12/04 19:15:06;;;;;;;35.22;15.52;;;3.60;99.90;;;;;;4853057;29;20109;-76
2022/12/04 19:17:32;;;;;;;35.92;16.17;;;3.70;99.90;;;;;;4886374;29;20050;-76
2022/12/04 19:19:59;;;;;;;43.05;19.67;;;3.70;99.90;;;;;;4878610;29;20038;-76
2022/12/04 19:22:24;;;;;;;36.20;16.90;;;3.60;99.90;;;;;;4853372;29;20137;-75
2022/12/04 19:24:50;;;;;;;37.60;16.27;;;3.60;99.90;;;;;;4860561;29;20080;-77
2022/12/04 19:27:16;;;;;;;40.85;17.70;;;3.60;99.90;;;;;;4874798;29;20053;-75
2022/12/04 19:29:42;;;;;;;38.28;17.42;;;3.70;99.90;;;;;;4878989;29;20062;-74
2022/12/04 19:32:09;;;;;;;37.70;16.70;;;3.70;99.90;;;;;;4884142;29;20037;-74